createdAt,value
2022-11-15T00:02:48.186Z,29.52
2022-11-15T00:05:39.771Z,26.83
2022-11-15T00:08:32.393Z,29.52
2022-11-15T00:11:25.950Z,26.92
2022-11-15T00:14:17.757Z,27.80
2022-11-15T00:17:10.904Z,26.85
2022-11-15T00:20:02.270Z,29.67
2022-11-15T00:22:53.670Z,28.73
2022-11-15T00:25:44.954Z,30.00
2022-11-15T00:28:37.435Z,28.60
2022-11-15T00:31:28.817Z,30.23
2022-11-15T00:34:20.130Z,28.75
2022-11-15T00:37:11.735Z,28.75
2022-11-15T00:40:03.805Z,29.15
2022-11-15T00:42:55.283Z,27.80
2022-11-15T00:45:48.020Z,28.75
2022-11-15T00:48:39.498Z,29.27
2022-11-15T00:51:31.037Z,30.13
2022-11-15T00:54:22.153Z,30.60
2022-11-15T00:57:13.271Z,32.03
2022-11-15T01:00:09.144Z,30.15
2022-11-15T01:03:02.248Z,29.42
2022-11-15T01:05:53.621Z,29.67
2022-11-15T01:08:45.057Z,29.50
2022-11-15T01:11:36.516Z,27.85
2022-11-15T01:14:28.632Z,28.67
2022-11-15T01:17:20.354Z,29.50
2022-11-15T01:20:14.559Z,28.38
2022-11-15T01:23:05.780Z,29.13
2022-11-15T01:26:01.009Z,28.23
2022-11-15T01:28:52.920Z,28.17
2022-11-15T01:31:44.667Z,27.40
2022-11-15T01:34:36.884Z,27.58
2022-11-15T01:37:29.746Z,28.17
2022-11-15T01:40:21.214Z,26.88
2022-11-15T01:43:24.413Z,28.15
2022-11-15T01:46:26.216Z,28.98
2022-11-15T01:49:21.611Z,28.15
2022-11-15T01:52:18.080Z,28.30
2022-11-15T01:55:16.080Z,27.67
2022-11-15T01:58:08.546Z,28.30
2022-11-15T02:01:00.241Z,27.43
2022-11-15T02:03:55.885Z,25.90
2022-11-15T02:06:49.131Z,27.48
2022-11-15T02:10:00.648Z,28.05
2022-11-15T02:12:55.578Z,29.20
2022-11-15T02:16:07.599Z,28.55
2022-11-15T02:19:06.710Z,28.05
2022-11-15T02:22:12.563Z,27.92
2022-11-15T02:25:19.739Z,28.88
2022-11-15T02:28:46.470Z,28.85
2022-11-15T02:31:50.911Z,28.25
2022-11-15T02:34:52.752Z,26.90
2022-11-15T02:37:49.627Z,27.58
2022-11-15T02:40:46.718Z,27.65
2022-11-15T02:43:59.871Z,27.35
2022-11-15T02:47:14.582Z,28.45
2022-11-15T02:50:11.104Z,25.77
2022-11-15T02:53:05.106Z,24.77
2022-11-15T02:55:59.013Z,27.25
2022-11-15T03:02:05.959Z,27.58
2022-11-15T03:05:00.162Z,27.83
2022-11-15T03:08:02.455Z,25.45
2022-11-15T03:11:05.290Z,25.87
2022-11-15T03:14:04.188Z,26.75
2022-11-15T03:17:04.138Z,25.52
2022-11-15T03:19:58.531Z,25.23
2022-11-15T03:22:52.106Z,25.08
2022-11-15T03:25:48.411Z,24.67
2022-11-15T03:28:45.483Z,23.45
2022-11-15T03:31:51.128Z,23.85
2022-11-15T03:34:49.711Z,22.58
2022-11-15T03:37:47.074Z,22.67
2022-11-15T03:40:40.963Z,20.92
2022-11-15T03:43:38.894Z,21.27
2022-11-15T03:46:35.937Z,19.55
2022-11-15T03:49:33.860Z,21.08
2022-11-15T03:52:26.650Z,17.98
2022-11-15T03:55:22.007Z,17.88
2022-11-15T03:58:13.438Z,17.70
2022-11-15T04:01:04.868Z,17.52
2022-11-15T04:03:56.419Z,17.20
2022-11-15T04:06:59.476Z,15.98
2022-11-15T04:10:04.118Z,14.65
2022-11-15T04:12:57.811Z,16.27
2022-11-15T04:15:49.136Z,14.90
2022-11-15T04:18:40.599Z,14.52
2022-11-15T04:21:49.525Z,14.45
2022-11-15T04:24:41.018Z,13.95
2022-11-15T04:27:33.791Z,13.77
2022-11-15T04:30:25.085Z,12.75
2022-11-15T04:33:16.904Z,13.32
2022-11-15T04:36:26.605Z,12.75
2022-11-15T04:39:17.956Z,12.43
2022-11-15T04:42:10.009Z,12.25
2022-11-15T04:45:02.755Z,11.98
2022-11-15T04:47:54.353Z,11.40
2022-11-15T04:50:49.942Z,11.05
2022-11-15T04:53:41.177Z,11.32
2022-11-15T04:56:32.267Z,10.80
2022-11-15T04:59:25.187Z,10.52
2022-11-15T05:02:18.175Z,9.80
2022-11-15T05:05:08.992Z,10.43
2022-11-15T05:08:00.577Z,9.32
2022-11-15T05:10:51.908Z,10.10
2022-11-15T05:13:43.434Z,9.63
2022-11-15T05:16:35.178Z,9.32
2022-11-15T05:19:28.129Z,8.68
2022-11-15T05:22:20.011Z,8.65
2022-11-15T05:25:11.262Z,8.98
2022-11-15T05:28:03.206Z,8.15
2022-11-15T05:30:54.642Z,7.97
2022-11-15T05:33:46.713Z,8.73
2022-11-15T05:36:43.177Z,8.35
2022-11-15T05:39:34.774Z,7.47
2022-11-15T05:42:29.923Z,7.35
2022-11-15T05:45:26.698Z,6.70
2022-11-15T05:48:18.885Z,7.72
2022-11-15T05:51:10.347Z,6.55
2022-11-15T05:54:05.575Z,6.38
2022-11-15T05:56:57.721Z,7.05
2022-11-15T05:59:52.322Z,5.82
2022-11-15T06:02:44.106Z,6.38
2022-11-15T06:05:35.906Z,5.75
2022-11-15T06:08:27.563Z,5.35
2022-11-15T06:11:20.515Z,5.35
2022-11-15T06:14:11.879Z,5.80
2022-11-15T06:17:06.064Z,5.32
2022-11-15T06:20:02.058Z,5.15
2022-11-15T06:22:57.929Z,5.15
2022-11-15T06:25:49.318Z,5.80
2022-11-15T06:28:41.921Z,4.57
2022-11-15T06:31:33.198Z,5.85
2022-11-15T06:34:25.851Z,4.05
2022-11-15T06:37:17.292Z,4.88
2022-11-15T06:40:10.237Z,4.78
2022-11-15T06:43:02.394Z,4.70
2022-11-15T06:45:55.270Z,3.80
2022-11-15T06:48:48.830Z,4.15
2022-11-15T06:51:40.248Z,3.83
2022-11-15T06:54:31.477Z,3.80
2022-11-15T06:57:23.072Z,3.83
2022-11-15T07:00:15.893Z,4.45
2022-11-15T07:03:08.669Z,3.97
2022-11-15T07:06:06.785Z,4.00
2022-11-15T07:08:58.919Z,4.75
2022-11-15T07:11:49.990Z,4.20
2022-11-15T07:14:41.221Z,4.07
2022-11-15T07:17:32.318Z,3.53
2022-11-15T07:20:25.186Z,4.45
2022-11-15T07:23:16.307Z,4.13
2022-11-15T07:26:07.648Z,4.32
2022-11-15T07:28:59.307Z,4.15
2022-11-15T07:31:51.483Z,4.57
2022-11-15T07:34:42.976Z,4.18
2022-11-15T07:37:35.416Z,4.07
2022-11-15T07:40:27.909Z,4.97
2022-11-15T07:43:19.354Z,4.03
2022-11-15T07:46:11.745Z,4.18
2022-11-15T07:49:02.924Z,3.95
2022-11-15T07:51:54.621Z,4.13
2022-11-15T07:54:47.127Z,4.85
2022-11-15T07:57:38.933Z,4.27
2022-11-15T08:00:30.228Z,5.22
2022-11-15T08:03:21.425Z,4.45
2022-11-15T08:06:12.724Z,5.00
2022-11-15T08:09:04.503Z,5.38
2022-11-15T08:11:57.195Z,5.38
2022-11-15T08:14:48.305Z,4.70
2022-11-15T08:17:39.518Z,5.00
2022-11-15T08:20:32.165Z,5.25
2022-11-15T08:23:23.606Z,5.13
2022-11-15T08:26:15.579Z,5.20
2022-11-15T08:29:09.629Z,5.43
2022-11-15T08:32:00.501Z,4.85
2022-11-15T08:34:51.609Z,5.05
2022-11-15T08:37:42.881Z,5.18
2022-11-15T08:40:34.199Z,4.75
2022-11-15T08:43:25.751Z,4.57
2022-11-15T08:46:19.339Z,4.95
2022-11-15T08:49:10.993Z,5.43
2022-11-15T08:52:02.121Z,4.70
2022-11-15T08:54:53.539Z,4.53
2022-11-15T08:57:44.832Z,4.40
2022-11-15T09:00:36.373Z,5.18
2022-11-15T09:03:28.935Z,4.30
2022-11-15T09:06:20.707Z,4.40
2022-11-15T09:09:12.122Z,4.50
2022-11-15T09:12:04.034Z,5.43
2022-11-15T09:14:55.635Z,5.82
2022-11-15T09:17:46.785Z,4.43
2022-11-15T09:20:41.406Z,5.75
2022-11-15T09:23:32.770Z,5.65
2022-11-15T09:26:24.690Z,5.95
2022-11-15T09:29:17.323Z,5.25
2022-11-15T09:32:09.562Z,5.32
2022-11-15T09:35:00.885Z,6.10
2022-11-15T09:37:56.355Z,6.68
2022-11-15T09:40:53.486Z,5.18
2022-11-15T09:43:51.718Z,6.28
2022-11-15T09:47:01.379Z,6.22
2022-11-15T09:49:57.872Z,6.32
2022-11-15T09:52:43.921Z,6.00
2022-11-15T09:55:22.283Z,6.40
2022-11-15T09:58:08.010Z,5.30
2022-11-15T10:00:47.431Z,7.45
2022-11-15T10:03:28.268Z,5.53
2022-11-15T10:06:03.769Z,5.95
2022-11-15T10:08:52.750Z,5.95
2022-11-15T10:11:37.138Z,5.97
2022-11-15T10:14:15.727Z,5.88
2022-11-15T10:17:23.738Z,6.43
2022-11-15T10:20:08.427Z,6.03
2022-11-15T10:22:46.089Z,6.15
2022-11-15T10:25:23.134Z,6.10
2022-11-15T10:28:00.902Z,6.72
2022-11-15T10:30:36.308Z,5.10
2022-11-15T10:33:33.193Z,5.07
2022-11-15T10:36:25.726Z,5.70
2022-11-15T10:39:00.139Z,5.78
2022-11-15T10:41:41.545Z,5.05
2022-11-15T10:44:25.211Z,5.13
2022-11-15T10:47:37.749Z,4.93
2022-11-15T10:50:28.885Z,4.53
2022-11-15T10:53:04.653Z,4.03
2022-11-15T10:55:37.516Z,3.85
2022-11-15T10:58:34.029Z,4.97
2022-11-15T11:01:19.673Z,5.03
2022-11-15T11:04:01.519Z,3.63
2022-11-15T11:06:48.529Z,3.45
2022-11-15T11:09:31.233Z,3.50
2022-11-15T11:12:05.430Z,4.00
2022-11-15T11:14:40.948Z,3.42
2022-11-15T11:17:23.577Z,2.83
2022-11-15T11:20:04.524Z,3.72
2022-11-15T11:22:46.889Z,3.50
2022-11-15T11:25:30.938Z,3.53
2022-11-15T11:28:18.392Z,3.10
2022-11-15T11:31:02.616Z,2.50
2022-11-15T11:33:44.078Z,2.83
2022-11-15T11:36:27.456Z,2.55
2022-11-15T11:39:16.463Z,2.40
2022-11-15T11:42:00.454Z,2.35
2022-11-15T11:44:41.823Z,2.88
2022-11-15T11:47:21.197Z,2.63
2022-11-15T11:50:02.079Z,2.95
2022-11-15T11:52:40.143Z,2.22
2022-11-15T11:55:18.519Z,2.50
2022-11-15T11:57:57.565Z,2.20
2022-11-15T12:00:35.163Z,2.45
2022-11-15T12:03:14.603Z,2.03
2022-11-15T12:05:52.122Z,3.05
2022-11-15T12:08:34.388Z,2.47
2022-11-15T12:11:14.366Z,3.50
2022-11-15T12:13:53.085Z,1.92
2022-11-15T12:16:29.505Z,2.00
2022-11-15T12:19:03.955Z,2.10
2022-11-15T12:21:43.761Z,2.45
2022-11-15T12:24:21.772Z,2.50
2022-11-15T12:27:01.273Z,1.65
2022-11-15T12:29:38.621Z,1.73
2022-11-15T12:32:30.422Z,1.50
2022-11-15T12:35:05.435Z,2.40
2022-11-15T12:37:57.687Z,2.78
2022-11-15T12:40:39.718Z,1.92
2022-11-15T12:43:42.299Z,2.28
2022-11-15T12:46:22.935Z,2.83
2022-11-15T12:48:58.579Z,2.00
2022-11-15T12:52:08.971Z,1.80
2022-11-15T12:55:25.413Z,1.73
2022-11-15T12:58:35.924Z,2.30
2022-11-15T13:01:09.232Z,1.92
2022-11-15T13:04:15.668Z,1.75
2022-11-15T13:06:50.257Z,1.92
2022-11-15T13:09:55.485Z,1.63
2022-11-15T13:13:06.850Z,2.08
2022-11-15T13:15:57.790Z,1.77
2022-11-15T13:18:39.184Z,1.67
2022-11-15T13:21:41.517Z,1.70
2022-11-15T13:24:17.793Z,1.70
2022-11-15T13:26:51.012Z,1.40
2022-11-15T13:29:23.982Z,1.80
2022-11-15T13:31:58.920Z,1.77
2022-11-15T13:34:52.330Z,1.42
2022-11-15T13:37:33.666Z,1.38
2022-11-15T13:40:23.565Z,1.10
2022-11-15T13:42:59.218Z,1.30
2022-11-15T13:45:31.912Z,1.90
2022-11-15T13:48:07.547Z,1.73
2022-11-15T13:50:41.694Z,1.80
2022-11-15T13:53:14.446Z,1.60
2022-11-15T13:55:47.316Z,1.92
2022-11-15T13:58:24.153Z,1.70
2022-11-15T14:01:02.874Z,1.52
2022-11-15T14:03:48.092Z,1.42
2022-11-15T14:06:23.599Z,1.80
2022-11-15T14:09:22.287Z,1.75
2022-11-15T14:11:57.240Z,1.13
2022-11-15T14:14:31.972Z,2.00
2022-11-15T14:17:04.650Z,1.70
2022-11-15T14:19:41.803Z,1.98
2022-11-15T14:22:22.840Z,2.08
2022-11-15T14:25:19.019Z,1.38
2022-11-15T14:28:14.065Z,1.40
2022-11-15T14:30:50.968Z,1.60
2022-11-15T14:33:25.901Z,1.75
2022-11-15T14:36:04.890Z,1.33
2022-11-15T14:38:37.560Z,1.40
2022-11-15T14:41:20.217Z,1.33
2022-11-15T14:43:54.461Z,1.38
2022-11-15T14:46:27.335Z,1.73
2022-11-15T14:49:00.086Z,1.45
2022-11-15T14:51:34.972Z,1.40
2022-11-15T14:54:10.318Z,1.60
2022-11-15T14:56:43.844Z,1.25
2022-11-15T14:59:16.639Z,1.95
2022-11-15T15:01:49.747Z,1.70
2022-11-15T15:06:57.115Z,1.63
2022-11-15T15:09:29.892Z,2.10
2022-11-15T15:12:06.349Z,1.70
2022-11-15T15:14:39.583Z,1.55
2022-11-15T15:19:45.329Z,2.05
2022-11-15T15:22:22.730Z,1.95
2022-11-15T15:24:55.496Z,1.88
2022-11-15T15:27:28.617Z,1.40
2022-11-15T15:32:36.379Z,1.45
2022-11-15T15:35:12.080Z,1.27
2022-11-15T15:37:50.767Z,1.70
2022-11-15T15:40:26.415Z,1.45
2022-11-15T15:42:59.251Z,1.77
2022-11-15T15:45:33.131Z,2.10
2022-11-15T15:48:06.390Z,1.83
2022-11-15T15:50:39.631Z,1.70
2022-11-15T15:53:22.057Z,2.45
2022-11-15T15:55:57.616Z,1.63
2022-11-15T15:58:35.654Z,1.73
2022-11-15T16:01:08.575Z,1.90
2022-11-15T16:03:41.451Z,1.52
2022-11-15T16:06:37.414Z,1.30
2022-11-15T16:09:16.797Z,1.75
2022-11-15T16:11:49.716Z,1.35
2022-11-15T16:14:22.405Z,1.88
2022-11-15T16:16:55.098Z,2.13
2022-11-15T16:19:28.039Z,1.48
2022-11-15T16:22:00.968Z,2.08
2022-11-15T16:27:14.596Z,1.83
2022-11-15T16:29:48.742Z,2.10
2022-11-15T16:32:22.027Z,1.73
2022-11-15T16:35:00.399Z,1.88
2022-11-15T16:37:34.295Z,2.03
2022-11-15T16:40:21.238Z,2.25
2022-11-15T16:42:59.875Z,2.00
2022-11-15T16:45:44.220Z,1.80
2022-11-15T16:48:27.153Z,2.28
2022-11-15T16:51:00.733Z,1.90
2022-11-15T16:53:35.834Z,2.20
2022-11-15T16:56:23.230Z,2.45
2022-11-15T16:58:58.667Z,2.67
2022-11-15T17:01:35.539Z,2.13
2022-11-15T17:04:16.531Z,2.38
2022-11-15T17:06:50.701Z,2.42
2022-11-15T17:09:27.837Z,2.28
2022-11-15T17:12:04.153Z,2.40
2022-11-15T17:14:37.281Z,2.13
2022-11-15T17:19:44.029Z,2.17
2022-11-15T17:22:17.425Z,2.28
2022-11-15T17:24:50.617Z,2.60
2022-11-15T17:27:25.725Z,2.70
2022-11-15T17:29:58.929Z,2.67
2022-11-15T17:32:32.494Z,2.30
2022-11-15T17:35:15.369Z,2.88
2022-11-15T17:40:21.742Z,2.28
2022-11-15T17:43:01.005Z,2.63
2022-11-15T17:45:48.673Z,2.90
2022-11-15T17:48:25.493Z,2.67
2022-11-15T17:51:20.152Z,2.20
2022-11-15T17:53:55.244Z,2.72
2022-11-15T17:57:10.293Z,2.65
2022-11-15T18:00:16.112Z,3.08
2022-11-15T18:03:18.264Z,3.13
2022-11-15T18:06:27.150Z,2.55
2022-11-15T18:09:16.599Z,2.60
2022-11-15T18:12:05.484Z,2.90
2022-11-15T18:14:39.873Z,2.63
2022-11-15T18:17:14.381Z,3.20
2022-11-15T18:19:48.762Z,3.65
2022-11-15T18:22:26.314Z,2.90
2022-11-15T18:25:01.310Z,3.30
2022-11-15T18:27:43.697Z,2.92
2022-11-15T18:30:17.104Z,2.95
2022-11-15T18:36:23.301Z,3.40
2022-11-15T18:38:57.493Z,3.38
2022-11-15T18:41:40.493Z,3.05
2022-11-15T18:46:51.336Z,3.25
2022-11-15T18:49:25.931Z,3.85
2022-11-15T18:51:59.145Z,3.97
2022-11-15T18:54:32.463Z,4.10
2022-11-15T18:57:15.662Z,4.40
2022-11-15T18:59:48.677Z,3.72
2022-11-15T19:04:56.348Z,4.15
2022-11-15T19:07:39.553Z,4.57
2022-11-15T19:10:14.544Z,4.15
2022-11-15T19:12:53.571Z,4.53
2022-11-15T19:15:26.737Z,4.82
2022-11-15T19:18:08.627Z,5.35
